createdAt,value
2018-02-21T00:01:14.945Z,127.33
2018-02-21T00:03:42.406Z,111.90
2018-02-21T00:06:10.661Z,138.43
2018-02-21T00:08:38.143Z,143.77
2018-02-21T00:11:06.386Z,146.67
2018-02-21T00:13:34.627Z,144.03
2018-02-21T00:16:02.101Z,121.47
2018-02-21T00:18:29.583Z,120.33
2018-02-21T00:20:57.070Z,129.47
2018-02-21T00:23:25.314Z,134.03
2018-02-21T00:25:52.806Z,114.23
2018-02-21T00:28:21.069Z,138.17
2018-02-21T00:30:49.306Z,122.40
2018-02-21T00:33:16.786Z,137.47
2018-02-21T00:35:45.026Z,128.53
2018-02-21T00:38:12.507Z,125.47
2018-02-21T00:40:40.043Z,128.33
2018-02-21T00:43:07.524Z,110.80
2018-02-21T00:45:34.999Z,105.50
2018-02-21T00:48:03.118Z,117.80
2018-02-21T00:50:30.618Z,131.03
2018-02-21T00:52:58.094Z,122.30
2018-02-21T00:55:26.343Z,118.10
2018-02-21T00:57:53.822Z,116.70
2018-02-21T01:00:21.302Z,124.50
2018-02-21T01:02:48.778Z,128.70
2018-02-21T01:05:16.255Z,126.87
2018-02-21T01:07:43.740Z,114.97
2018-02-21T01:10:11.235Z,122.97
2018-02-21T01:12:38.726Z,135.20
2018-02-21T01:15:06.210Z,110.47
2018-02-21T01:17:33.691Z,148.63
2018-02-21T01:20:03.125Z,137.30
2018-02-21T01:22:30.605Z,126.23
2018-02-21T01:24:58.093Z,117.93
2018-02-21T01:27:25.574Z,120.57
2018-02-21T01:29:53.067Z,111.43
2018-02-21T01:32:20.559Z,117.63
2018-02-21T01:34:48.042Z,117.07
2018-02-21T01:37:16.274Z,127.77
2018-02-21T01:39:43.751Z,120.83
2018-02-21T01:42:11.230Z,129.47
2018-02-21T01:44:38.698Z,106.03
2018-02-21T01:47:06.185Z,119.13
2018-02-21T01:49:33.732Z,121.10
2018-02-21T01:52:01.202Z,113.00
2018-02-21T01:54:28.686Z,108.53
2018-02-21T01:56:56.196Z,130.63
2018-02-21T01:59:23.671Z,143.93
2018-02-21T02:01:51.155Z,119.70
2018-02-21T02:04:18.631Z,106.03
2018-02-21T02:06:46.866Z,114.97
2018-02-21T02:09:14.345Z,109.67
2018-02-21T02:11:41.812Z,126.70
2018-02-21T02:14:09.280Z,116.70
2018-02-21T02:16:37.523Z,132.33
2018-02-21T02:19:05.001Z,111.13
2018-02-21T02:21:33.114Z,135.00
2018-02-21T02:24:00.594Z,110.00
2018-02-21T02:26:28.067Z,108.63
2018-02-21T02:28:55.598Z,122.87
2018-02-21T02:31:23.806Z,125.43
2018-02-21T02:33:51.287Z,124.37
2018-02-21T02:36:19.531Z,117.50
2018-02-21T02:38:58.900Z,119.03
2018-02-21T02:41:27.135Z,115.37
2018-02-21T02:43:54.622Z,110.40
2018-02-21T02:46:22.103Z,118.17
2018-02-21T02:48:50.351Z,117.03
2018-02-21T02:51:17.824Z,125.37
2018-02-21T02:53:46.075Z,117.30
2018-02-21T02:56:13.653Z,121.90
2018-02-21T02:58:41.075Z,116.57
2018-02-21T03:01:08.560Z,129.00
2018-02-21T03:03:36.041Z,124.30
2018-02-21T03:06:03.514Z,114.13
2018-02-21T03:08:31.011Z,117.27
2018-02-21T03:10:58.492Z,112.60
2018-02-21T03:13:25.965Z,119.23
2018-02-21T03:15:53.455Z,111.37
2018-02-21T03:18:20.927Z,108.40
2018-02-21T03:20:48.395Z,116.93
2018-02-21T03:23:15.877Z,110.33
2018-02-21T03:25:44.116Z,124.57
2018-02-21T03:28:12.474Z,107.17
2018-02-21T03:30:39.964Z,112.90
2018-02-21T03:33:07.451Z,135.10
2018-02-21T03:35:35.696Z,113.30
2018-02-21T03:38:03.184Z,123.23
2018-02-21T03:40:31.482Z,118.53
2018-02-21T03:42:58.960Z,112.40
2018-02-21T03:45:26.448Z,129.60
2018-02-21T03:47:53.917Z,108.17
2018-02-21T03:50:21.391Z,112.20
2018-02-21T03:52:49.637Z,118.90
2018-02-21T03:55:17.102Z,125.37
2018-02-21T03:57:44.574Z,113.97
2018-02-21T04:00:13.485Z,113.97
2018-02-21T04:02:40.956Z,123.07
2018-02-21T04:05:08.419Z,110.13
2018-02-21T04:07:35.907Z,109.40
2018-02-21T04:10:03.379Z,122.57
2018-02-21T04:12:30.850Z,107.10
2018-02-21T04:14:59.095Z,117.27
2018-02-21T04:17:26.574Z,118.77
2018-02-21T04:19:54.034Z,110.37
2018-02-21T04:22:22.287Z,105.60
2018-02-21T04:24:49.768Z,113.33
2018-02-21T04:27:18.017Z,118.43
2018-02-21T04:29:45.494Z,109.37
2018-02-21T04:32:13.210Z,120.00
2018-02-21T04:34:40.675Z,116.57
2018-02-21T04:37:08.242Z,115.07
2018-02-21T04:39:35.711Z,108.93
2018-02-21T04:42:03.179Z,126.40
2018-02-21T04:44:30.654Z,139.17
2018-02-21T04:46:58.896Z,122.20
2018-02-21T04:49:26.420Z,126.00
2018-02-21T04:51:53.926Z,120.47
2018-02-21T04:54:36.291Z,115.63
2018-02-21T04:57:19.413Z,104.87
2018-02-21T05:00:02.708Z,115.63
2018-02-21T05:02:30.951Z,114.10
2018-02-21T05:04:58.425Z,118.87
2018-02-21T05:07:26.661Z,127.40
2018-02-21T05:09:54.151Z,109.07
2018-02-21T05:12:21.659Z,125.23
2018-02-21T05:14:49.130Z,121.87
2018-02-21T05:17:16.622Z,115.90
2018-02-21T05:19:45.013Z,120.03
2018-02-21T05:22:13.486Z,117.97
2018-02-21T05:24:40.972Z,122.73
2018-02-21T05:27:09.198Z,121.07
2018-02-21T05:29:36.672Z,126.10
2018-02-21T05:32:04.150Z,125.30
2018-02-21T05:34:32.383Z,128.00
2018-02-21T05:36:59.858Z,113.47
2018-02-21T05:39:27.338Z,108.63
2018-02-21T05:41:55.573Z,119.00
2018-02-21T05:44:23.898Z,128.37
2018-02-21T05:46:52.392Z,129.67
2018-02-21T05:49:19.867Z,124.90
2018-02-21T05:51:47.334Z,127.40
2018-02-21T05:54:14.899Z,129.30
2018-02-21T05:56:42.374Z,136.57
2018-02-21T05:59:09.848Z,117.17
2018-02-21T06:01:38.090Z,124.07
2018-02-21T06:04:05.583Z,122.10
2018-02-21T06:06:33.822Z,119.37
2018-02-21T06:09:01.295Z,118.93
2018-02-21T06:11:28.764Z,119.97
2018-02-21T06:13:57.014Z,119.63
2018-02-21T06:16:24.490Z,117.63
2018-02-21T06:18:51.979Z,134.03
2018-02-21T06:21:19.442Z,135.07
2018-02-21T06:23:46.930Z,118.53
2018-02-21T06:26:14.482Z,127.43
2018-02-21T06:28:41.966Z,141.50
2018-02-21T06:31:09.447Z,139.27
2018-02-21T06:33:37.688Z,142.17
2018-02-21T06:36:05.166Z,127.17
2018-02-21T06:38:32.716Z,117.00
2018-02-21T06:41:00.151Z,140.90
2018-02-21T06:43:27.635Z,123.77
2018-02-21T06:45:55.102Z,125.43
2018-02-21T06:48:23.336Z,126.90
2018-02-21T06:50:50.806Z,136.17
2018-02-21T06:53:18.290Z,130.87
2018-02-21T06:55:45.766Z,124.33
2018-02-21T06:58:13.292Z,108.90
2018-02-21T07:00:41.587Z,144.33
2018-02-21T07:03:09.828Z,140.97
2018-02-21T07:05:37.316Z,140.45
2018-02-21T07:08:05.578Z,128.13
2018-02-21T07:10:33.096Z,134.33
2018-02-21T07:13:00.572Z,129.47
2018-02-21T07:15:28.097Z,141.17
2018-02-21T07:17:56.302Z,128.07
2018-02-21T07:20:23.771Z,129.67
2018-02-21T07:22:51.263Z,164.20
2018-02-21T07:25:18.738Z,125.57
2018-02-21T07:27:46.209Z,142.40
2018-02-21T07:30:14.332Z,152.10
2018-02-21T07:32:41.804Z,134.50
2018-02-21T07:35:10.058Z,134.50
2018-02-21T07:37:37.536Z,130.27
2018-02-21T07:40:05.770Z,143.70
2018-02-21T07:42:33.246Z,125.20
2018-02-21T07:45:00.734Z,142.87
2018-02-21T07:47:28.203Z,142.30
2018-02-21T07:49:55.666Z,124.43
2018-02-21T07:52:23.160Z,145.87
2018-02-21T07:54:50.644Z,119.77
2018-02-21T07:57:18.119Z,142.57
2018-02-21T07:59:46.376Z,131.13
2018-02-21T08:02:13.976Z,112.30
2018-02-21T08:04:41.459Z,123.97
2018-02-21T08:07:08.945Z,121.80
2018-02-21T08:09:36.428Z,125.87
2018-02-21T08:12:03.894Z,132.00
2018-02-21T08:14:31.370Z,133.87
2018-02-21T08:16:58.846Z,128.67
2018-02-21T08:19:26.319Z,138.30
2018-02-21T08:21:53.845Z,117.03
2018-02-21T08:24:21.330Z,129.07
2018-02-21T08:26:48.801Z,125.27
2018-02-21T08:29:16.295Z,138.33
2018-02-21T08:31:43.772Z,116.47
2018-02-21T08:34:11.252Z,122.17
2018-02-21T08:36:38.749Z,112.60
2018-02-21T08:39:06.199Z,125.83
2018-02-21T08:41:34.439Z,112.40
2018-02-21T08:44:01.936Z,117.63
2018-02-21T08:46:30.175Z,114.23
2018-02-21T08:48:57.646Z,108.47
2018-02-21T08:51:25.124Z,106.90
2018-02-21T08:53:53.363Z,114.73
2018-02-21T08:56:20.840Z,108.37
2018-02-21T08:58:48.383Z,111.57
2018-02-21T09:01:15.804Z,108.57
2018-02-21T09:03:44.036Z,116.20
2018-02-21T09:06:12.285Z,105.93
2018-02-21T09:08:39.752Z,104.30
2018-02-21T09:11:07.213Z,101.97
2018-02-21T09:13:34.683Z,111.93
2018-02-21T09:16:03.339Z,101.13
2018-02-21T09:18:30.871Z,102.73
2018-02-21T09:20:58.358Z,102.40
2018-02-21T09:23:25.835Z,97.47
2018-02-21T09:25:53.294Z,100.87
2018-02-21T09:28:21.618Z,111.73
2018-02-21T09:30:49.077Z,102.47
2018-02-21T09:33:16.935Z,101.77
2018-02-21T09:35:44.421Z,95.57
2018-02-21T09:38:11.936Z,93.63
2018-02-21T09:40:39.407Z,90.30
2018-02-21T09:43:06.884Z,99.00
2018-02-21T09:45:34.347Z,95.77
2018-02-21T09:48:01.847Z,101.13
2018-02-21T09:50:30.095Z,98.17
2018-02-21T09:52:57.570Z,90.63
2018-02-21T09:55:25.814Z,94.33
2018-02-21T09:57:53.296Z,91.87
2018-02-21T10:00:20.754Z,89.73
2018-02-21T10:02:48.222Z,89.00
2018-02-21T10:05:16.465Z,91.53
2018-02-21T10:07:43.929Z,91.77
2018-02-21T10:10:11.386Z,90.33
2018-02-21T10:12:38.862Z,90.97
2018-02-21T10:15:07.111Z,100.00
2018-02-21T10:17:34.540Z,91.00
2018-02-21T10:20:02.911Z,93.40
2018-02-21T10:22:30.375Z,91.10
2018-02-21T10:24:57.843Z,91.47
2018-02-21T10:27:25.308Z,93.47
2018-02-21T10:29:52.799Z,85.77
2018-02-21T10:32:20.250Z,91.97
2018-02-21T10:34:47.730Z,89.50
2018-02-21T10:37:15.192Z,89.00
2018-02-21T10:39:42.655Z,92.97
2018-02-21T10:42:10.134Z,93.10
2018-02-21T10:44:37.587Z,88.83
2018-02-21T10:47:05.042Z,90.23
2018-02-21T10:49:32.511Z,92.53
2018-02-21T10:51:59.975Z,89.73
2018-02-21T10:54:28.210Z,94.97
2018-02-21T10:56:55.686Z,83.47
2018-02-21T10:59:23.183Z,94.97
2018-02-21T11:01:50.648Z,86.33
2018-02-21T11:04:18.114Z,97.10
2018-02-21T11:06:46.345Z,90.33
2018-02-21T11:09:13.816Z,87.10
2018-02-21T11:11:41.290Z,89.03
2018-02-21T11:14:10.364Z,97.77
2018-02-21T11:16:37.893Z,92.67
2018-02-21T11:19:05.369Z,81.40
2018-02-21T11:21:32.826Z,99.47
2018-02-21T11:24:00.293Z,80.03
2018-02-21T11:26:27.767Z,89.50
2018-02-21T11:28:55.280Z,86.43
2018-02-21T11:31:23.458Z,96.20
2018-02-21T11:33:50.952Z,80.63
2018-02-21T11:36:18.413Z,87.63
2018-02-21T11:38:45.884Z,93.20
2018-02-21T11:41:13.357Z,88.27
2018-02-21T11:43:40.834Z,84.23
2018-02-21T11:46:08.290Z,91.87
2018-02-21T11:48:35.915Z,84.20
2018-02-21T11:51:03.370Z,89.67
2018-02-21T11:53:31.596Z,95.33
2018-02-21T11:55:59.068Z,90.80
2018-02-21T11:58:26.542Z,92.50
2018-02-21T12:00:54.003Z,97.33
2018-02-21T12:03:21.494Z,81.83
2018-02-21T12:05:48.973Z,88.93
2018-02-21T12:08:16.433Z,91.20
2018-02-21T12:10:43.929Z,95.33
2018-02-21T12:13:11.383Z,85.97
2018-02-21T12:15:38.842Z,88.53
2018-02-21T12:18:06.323Z,89.03
2018-02-21T12:20:34.544Z,85.17
2018-02-21T12:23:02.010Z,92.30
2018-02-21T12:25:29.492Z,95.97
2018-02-21T12:27:56.951Z,93.43
2018-02-21T12:30:24.406Z,92.23
2018-02-21T12:32:57.524Z,87.13
2018-02-21T12:35:24.996Z,89.67
2018-02-21T12:37:52.529Z,85.90
2018-02-21T12:40:26.391Z,82.60
2018-02-21T12:42:53.859Z,82.53
2018-02-21T12:45:21.423Z,82.63
2018-02-21T12:47:48.890Z,80.63
2018-02-21T12:50:16.971Z,83.63
2018-02-21T12:52:44.410Z,84.37
2018-02-21T12:55:11.967Z,86.13
2018-02-21T12:57:39.440Z,85.37
2018-02-21T13:00:07.714Z,88.60
2018-02-21T13:02:35.159Z,87.70
2018-02-21T13:05:02.723Z,84.40
2018-02-21T13:07:30.199Z,90.60
2018-02-21T13:09:58.440Z,81.77
2018-02-21T13:12:25.922Z,88.73
2018-02-21T13:14:54.911Z,84.40
2018-02-21T13:17:22.393Z,92.90
2018-02-21T13:19:49.923Z,86.80
2018-02-21T13:22:17.484Z,86.40
2018-02-21T13:24:44.947Z,89.67
2018-02-21T13:27:13.210Z,81.00
2018-02-21T13:29:40.771Z,90.73
2018-02-21T13:32:08.225Z,85.77
2018-02-21T13:34:35.691Z,87.37
2018-02-21T13:37:04.013Z,88.13
2018-02-21T13:39:31.419Z,88.40
2018-02-21T13:41:58.967Z,87.67
2018-02-21T13:44:26.533Z,89.93
2018-02-21T13:46:54.094Z,85.83
2018-02-21T13:49:22.340Z,81.33
2018-02-21T13:51:49.811Z,87.17
2018-02-21T13:54:17.384Z,84.90
2018-02-21T13:56:44.855Z,78.27
2018-02-21T13:59:13.083Z,82.03
2018-02-21T14:01:40.547Z,86.63
2018-02-21T14:04:08.016Z,83.10
2018-02-21T14:06:35.597Z,87.80
2018-02-21T14:09:03.057Z,88.33
2018-02-21T14:11:31.319Z,90.80
2018-02-21T14:13:58.875Z,80.03
2018-02-21T14:16:26.348Z,79.70
2018-02-21T14:18:54.588Z,76.50
2018-02-21T14:21:22.178Z,92.57
2018-02-21T14:23:49.635Z,85.20
2018-02-21T14:26:18.640Z,87.17
2018-02-21T14:28:46.871Z,82.67
2018-02-21T14:31:14.447Z,79.27
2018-02-21T14:33:41.962Z,83.03
2018-02-21T14:36:09.474Z,80.60
2018-02-21T14:38:37.031Z,73.40
2018-02-21T14:41:04.506Z,79.77
2018-02-21T14:43:32.785Z,77.40
2018-02-21T14:46:01.024Z,72.80
2018-02-21T14:48:28.492Z,75.20
2018-02-21T14:50:56.077Z,74.53
2018-02-21T14:53:24.326Z,78.40
2018-02-21T14:55:51.783Z,82.50
2018-02-21T14:58:19.247Z,74.90
2018-02-21T15:00:46.735Z,74.47
2018-02-21T15:03:15.010Z,78.83
2018-02-21T15:05:42.511Z,78.87
2018-02-21T15:08:09.975Z,68.63
2018-02-21T15:10:37.488Z,73.37
2018-02-21T15:13:05.001Z,69.63
2018-02-21T15:15:32.535Z,66.13
2018-02-21T15:18:00.002Z,72.27
2018-02-21T15:20:27.494Z,70.60
2018-02-21T15:22:55.718Z,73.33
2018-02-21T15:25:23.211Z,69.50
2018-02-21T15:27:50.678Z,58.67
2018-02-21T15:30:18.932Z,61.70
2018-02-21T15:32:47.211Z,61.13
2018-02-21T15:35:14.796Z,58.70
2018-02-21T15:37:42.194Z,53.57
2018-02-21T15:40:09.668Z,64.47
2018-02-21T15:42:37.123Z,68.10
2018-02-21T15:45:04.591Z,63.23
2018-02-21T15:47:32.079Z,64.60
2018-02-21T15:50:00.299Z,60.30
2018-02-21T15:52:27.779Z,65.17
2018-02-21T15:54:55.315Z,63.43
2018-02-21T15:57:22.774Z,59.13
2018-02-21T15:59:50.238Z,63.63
2018-02-21T16:02:17.716Z,64.83
2018-02-21T16:04:45.176Z,58.30
2018-02-21T16:07:13.535Z,64.73
2018-02-21T16:09:40.997Z,66.37
2018-02-21T16:12:08.531Z,67.23
2018-02-21T16:14:36.011Z,67.00
2018-02-21T16:17:03.505Z,61.67
2018-02-21T16:19:31.746Z,64.70
2018-02-21T16:21:59.230Z,67.27
2018-02-21T16:24:27.474Z,66.97
2018-02-21T16:26:54.964Z,58.50
2018-02-21T16:29:23.210Z,68.93
2018-02-21T16:31:50.672Z,57.40
2018-02-21T16:34:18.132Z,54.10
2018-02-21T16:36:45.658Z,61.70
2018-02-21T16:39:13.132Z,60.40
2018-02-21T16:41:40.599Z,60.80
2018-02-21T16:44:08.126Z,62.27
2018-02-21T16:46:35.600Z,60.40
2018-02-21T16:49:03.099Z,59.40
2018-02-21T16:51:31.320Z,68.97
2018-02-21T16:54:04.558Z,64.90
2018-02-21T16:56:33.214Z,62.53
2018-02-21T16:59:00.670Z,71.93
2018-02-21T17:01:28.162Z,65.70
2018-02-21T17:03:56.410Z,60.50
2018-02-21T17:06:23.867Z,71.07
2018-02-21T17:08:51.387Z,63.87
2018-02-21T17:11:18.878Z,68.17
2018-02-21T17:13:47.162Z,73.60
2018-02-21T17:16:14.642Z,72.57
2018-02-21T17:18:42.979Z,63.93
2018-02-21T17:21:10.464Z,65.03
2018-02-21T17:23:37.947Z,69.27
2018-02-21T17:26:05.421Z,67.63
2018-02-21T17:28:33.896Z,66.27
2018-02-21T17:31:01.393Z,65.40
2018-02-21T17:33:29.320Z,73.97
2018-02-21T17:35:56.803Z,79.47
2018-02-21T17:38:24.284Z,74.40
2018-02-21T17:40:57.541Z,76.57
2018-02-21T17:43:25.070Z,75.03
2018-02-21T17:45:53.322Z,60.73
2018-02-21T17:48:20.858Z,70.50
2018-02-21T17:50:48.384Z,67.80
2018-02-21T17:53:16.619Z,73.87
2018-02-21T17:55:44.846Z,68.90
2018-02-21T17:58:12.339Z,65.13
2018-02-21T18:00:39.829Z,65.93
2018-02-21T18:03:07.310Z,75.70
2018-02-21T18:05:34.795Z,71.83
2018-02-21T18:08:02.326Z,72.37
2018-02-21T18:10:29.807Z,65.97
2018-02-21T18:12:57.336Z,67.87
2018-02-21T18:15:25.558Z,71.23
2018-02-21T18:17:53.730Z,66.27
2018-02-21T18:20:21.246Z,67.40
2018-02-21T18:22:48.755Z,63.57
2018-02-21T18:25:16.258Z,68.87
2018-02-21T18:27:43.736Z,68.37
2018-02-21T18:30:11.246Z,63.63
2018-02-21T18:32:39.477Z,77.13
2018-02-21T18:35:06.974Z,70.87
2018-02-21T18:37:34.471Z,76.40
2018-02-21T18:40:01.943Z,64.47
2018-02-21T18:42:29.431Z,69.57
2018-02-21T18:44:56.932Z,66.03
2018-02-21T18:47:24.403Z,68.73
2018-02-21T18:49:51.870Z,68.47
2018-02-21T18:52:19.389Z,67.27
2018-02-21T18:54:46.843Z,63.10
2018-02-21T18:57:14.304Z,65.63
2018-02-21T18:59:41.803Z,70.17
2018-02-21T19:02:09.259Z,65.60
2018-02-21T19:04:36.732Z,75.00
2018-02-21T19:07:04.226Z,68.40
2018-02-21T19:09:31.701Z,76.23
2018-02-21T19:11:59.174Z,69.93
2018-02-21T19:14:26.725Z,60.20
2018-02-21T19:16:54.220Z,66.50
2018-02-21T19:19:21.693Z,61.00
2018-02-21T19:21:49.958Z,67.63
2018-02-21T19:24:17.435Z,65.37
2018-02-21T19:26:44.916Z,67.50
2018-02-21T19:29:12.395Z,77.60
2018-02-21T19:31:39.866Z,69.87
2018-02-21T19:34:07.326Z,70.47
2018-02-21T19:36:34.810Z,68.40
2018-02-21T19:39:03.498Z,74.83
2018-02-21T19:41:31.718Z,67.80
2018-02-21T19:43:59.214Z,68.50
2018-02-21T19:46:26.678Z,69.40
2018-02-21T19:48:54.918Z,67.07
2018-02-21T19:51:22.388Z,80.17
2018-02-21T19:53:49.854Z,72.10
2018-02-21T19:56:17.314Z,64.90
2018-02-21T19:58:44.820Z,72.87
2018-02-21T20:01:12.291Z,72.30
2018-02-21T20:03:39.759Z,79.47
2018-02-21T20:06:07.230Z,77.13
2018-02-21T20:08:34.698Z,73.43
2018-02-21T20:11:02.166Z,76.77
2018-02-21T20:13:29.686Z,78.77
2018-02-21T20:15:57.176Z,76.77
2018-02-21T20:18:24.687Z,70.50
2018-02-21T20:20:52.211Z,76.50
2018-02-21T20:23:20.431Z,79.17
2018-02-21T20:25:47.913Z,74.63
2018-02-21T20:28:15.403Z,80.40
2018-02-21T20:30:43.663Z,85.03
2018-02-21T20:33:11.127Z,78.40
2018-02-21T20:35:39.396Z,76.37
2018-02-21T20:38:06.941Z,80.57
2018-02-21T20:40:34.409Z,70.50
2018-02-21T20:43:01.901Z,71.83
2018-02-21T20:45:29.410Z,67.80
2018-02-21T20:47:56.884Z,67.50
2018-02-21T20:50:24.403Z,76.43
2018-02-21T20:52:51.904Z,75.70
2018-02-21T20:55:20.142Z,65.00
2018-02-21T20:57:47.638Z,77.00
2018-02-21T21:00:15.949Z,67.13
2018-02-21T21:02:43.422Z,74.30
2018-02-21T21:05:10.932Z,64.83
2018-02-21T21:07:39.166Z,70.83
2018-02-21T21:10:06.647Z,68.43
2018-02-21T21:12:34.139Z,71.03
2018-02-21T21:15:01.650Z,67.17
2018-02-21T21:17:29.179Z,65.93
2018-02-21T21:19:56.715Z,64.20
2018-02-21T21:22:24.195Z,66.10
2018-02-21T21:24:51.666Z,59.60
2018-02-21T21:27:19.367Z,62.67
2018-02-21T21:29:47.651Z,67.57
2018-02-21T21:32:15.161Z,67.47
2018-02-21T21:34:42.630Z,66.07
2018-02-21T21:37:10.150Z,60.53
2018-02-21T21:39:37.632Z,61.97
2018-02-21T21:42:05.120Z,63.27
2018-02-21T21:44:34.206Z,62.90
2018-02-21T21:47:01.678Z,59.53
2018-02-21T21:49:32.868Z,63.77
2018-02-21T21:51:57.405Z,60.73
2018-02-21T21:54:25.665Z,67.90
2018-02-21T21:56:53.180Z,63.23
2018-02-21T21:59:20.715Z,66.57
2018-02-21T22:01:48.223Z,74.37
2018-02-21T22:04:15.729Z,57.47
2018-02-21T22:06:44.031Z,61.37
2018-02-21T22:09:11.510Z,64.37
2018-02-21T22:11:39.043Z,64.73
2018-02-21T22:14:07.218Z,60.70
2018-02-21T22:16:34.685Z,60.03
2018-02-21T22:19:02.183Z,63.60
2018-02-21T22:21:29.695Z,58.20
2018-02-21T22:23:57.174Z,61.10
2018-02-21T22:26:24.730Z,57.83
2018-02-21T22:28:52.206Z,57.00
2018-02-21T22:31:19.778Z,69.50
2018-02-21T22:33:47.507Z,63.53
2018-02-21T22:36:14.999Z,67.67
2018-02-21T22:38:42.475Z,63.50
2018-02-21T22:41:10.802Z,68.07
2018-02-21T22:43:38.302Z,61.50
2018-02-21T22:46:05.891Z,68.47
2018-02-21T22:48:34.126Z,64.73
2018-02-21T22:51:01.607Z,67.63
2018-02-21T22:53:29.122Z,62.03
2018-02-21T22:55:57.233Z,65.80
2018-02-21T22:58:25.474Z,68.33
2018-02-21T23:00:52.989Z,65.83
2018-02-21T23:03:20.474Z,58.40
2018-02-21T23:05:47.954Z,69.23
2018-02-21T23:08:15.431Z,59.37
2018-02-21T23:10:43.708Z,60.33
2018-02-21T23:13:11.995Z,64.70
2018-02-21T23:15:39.463Z,61.87
2018-02-21T23:18:06.954Z,67.13
2018-02-21T23:20:34.433Z,66.87
2018-02-21T23:23:01.905Z,63.60
2018-02-21T23:25:29.379Z,64.03
2018-02-21T23:27:56.863Z,62.43
2018-02-21T23:30:24.332Z,65.40
2018-02-21T23:32:51.846Z,61.83
2018-02-21T23:35:20.091Z,63.80
2018-02-21T23:37:47.583Z,62.30
2018-02-21T23:40:15.081Z,64.07
2018-02-21T23:42:42.579Z,72.60
2018-02-21T23:45:10.056Z,67.47
2018-02-21T23:47:37.535Z,64.73
2018-02-21T23:50:05.052Z,67.20
2018-02-21T23:52:33.297Z,62.13
2018-02-21T23:55:00.783Z,65.17
2018-02-21T23:57:29.046Z,64.53
2018-02-21T23:59:56.502Z,70.63
